createdAt,value
2019-05-15T00:00:23.808Z,2.70
2019-05-15T00:01:23.771Z,2.40
2019-05-15T00:02:23.749Z,2.80
2019-05-15T00:03:23.727Z,2.60
2019-05-15T00:04:23.704Z,2.60
2019-05-15T00:05:23.696Z,2.60
2019-05-15T00:06:23.661Z,2.60
2019-05-15T00:07:23.641Z,2.60
2019-05-15T00:08:23.624Z,3.00
2019-05-15T00:09:23.599Z,2.70
2019-05-15T00:10:23.612Z,2.80
2019-05-15T00:11:23.556Z,2.90
2019-05-15T00:12:23.538Z,2.80
2019-05-15T00:13:23.511Z,2.90
2019-05-15T00:14:23.490Z,2.80
2019-05-15T00:15:23.468Z,2.90
2019-05-15T00:16:23.476Z,2.70
2019-05-15T00:17:23.425Z,2.60
2019-05-15T00:18:23.407Z,2.90
2019-05-15T00:19:23.383Z,2.60
2019-05-15T00:20:23.359Z,2.60
2019-05-15T00:21:23.350Z,2.70
2019-05-15T00:22:23.315Z,2.80
2019-05-15T00:23:23.295Z,2.80
2019-05-15T00:24:23.277Z,2.50
2019-05-15T00:25:23.255Z,2.60
2019-05-15T00:26:23.239Z,2.90
2019-05-15T00:27:23.206Z,2.70
2019-05-15T00:28:23.185Z,2.80
2019-05-15T00:29:23.162Z,2.90
2019-05-15T00:30:23.141Z,2.30
2019-05-15T00:31:23.140Z,2.90
2019-05-15T00:32:23.100Z,2.60
2019-05-15T00:33:23.076Z,2.80
2019-05-15T00:34:23.053Z,2.90
2019-05-15T00:35:23.031Z,2.70
2019-05-15T00:36:23.029Z,2.80
2019-05-15T00:37:22.988Z,2.90
2019-05-15T00:38:22.964Z,2.60
2019-05-15T00:39:22.944Z,2.70
2019-05-15T00:40:22.926Z,2.70
2019-05-15T00:41:22.906Z,2.50
2019-05-15T00:42:22.900Z,2.80
2019-05-15T00:43:22.865Z,3.30
2019-05-15T00:44:22.833Z,2.90
2019-05-15T00:45:22.812Z,2.50
2019-05-15T00:46:22.789Z,2.80
2019-05-15T00:47:22.782Z,2.80
2019-05-15T00:48:22.747Z,3.00
2019-05-15T00:49:22.724Z,2.90
2019-05-15T00:50:22.707Z,2.90
2019-05-15T00:51:22.681Z,3.00
2019-05-15T00:52:22.679Z,2.70
2019-05-15T00:53:22.636Z,3.00
2019-05-15T00:54:22.616Z,2.70
2019-05-15T00:55:22.594Z,3.10
2019-05-15T00:56:22.614Z,3.20
2019-05-15T00:57:22.561Z,2.90
2019-05-15T00:58:22.526Z,2.80
2019-05-15T00:59:26.631Z,3.00
2019-05-15T01:00:22.483Z,2.80
2019-05-15T01:01:22.460Z,2.90
2019-05-15T01:02:22.448Z,3.20
2019-05-15T01:03:22.425Z,3.10
2019-05-15T01:04:22.395Z,2.90
2019-05-15T01:05:22.368Z,2.70
2019-05-15T01:06:22.347Z,3.00
2019-05-15T01:07:22.368Z,2.90
2019-05-15T01:08:22.304Z,3.20
2019-05-15T01:09:22.284Z,2.70
2019-05-15T01:10:22.261Z,3.00
2019-05-15T01:11:22.241Z,3.00
2019-05-15T01:12:22.217Z,2.70
2019-05-15T01:13:22.210Z,3.10
2019-05-15T01:14:22.175Z,3.20
2019-05-15T01:15:22.152Z,3.00
2019-05-15T01:16:22.126Z,3.20
2019-05-15T01:17:22.104Z,2.90
2019-05-15T01:18:22.097Z,2.80
2019-05-15T01:19:22.067Z,3.50
2019-05-15T01:20:22.041Z,3.30
2019-05-15T01:21:22.018Z,2.80
2019-05-15T01:22:22.010Z,3.00
2019-05-15T01:23:21.987Z,3.10
2019-05-15T01:24:21.949Z,3.00
2019-05-15T01:25:21.929Z,3.00
2019-05-15T01:26:21.908Z,3.20
2019-05-15T01:27:21.886Z,2.70
2019-05-15T01:28:21.898Z,2.60
2019-05-15T01:29:21.839Z,2.60
2019-05-15T01:30:21.817Z,2.90
2019-05-15T01:31:21.794Z,3.30
2019-05-15T01:32:21.771Z,3.20
2019-05-15T01:33:21.749Z,2.70
2019-05-15T01:34:21.747Z,3.00
2019-05-15T01:35:21.706Z,3.00
2019-05-15T01:36:21.686Z,3.00
2019-05-15T01:37:21.658Z,2.60
2019-05-15T01:38:21.638Z,3.30
2019-05-15T01:39:21.636Z,3.50
2019-05-15T01:40:21.593Z,3.20
2019-05-15T01:41:21.569Z,3.30
2019-05-15T01:42:21.548Z,3.60
2019-05-15T01:43:21.531Z,3.70
2019-05-15T01:44:21.519Z,3.10
2019-05-15T01:45:21.479Z,3.30
2019-05-15T01:46:21.458Z,2.70
2019-05-15T01:47:21.437Z,2.80
2019-05-15T01:48:21.413Z,3.00
2019-05-15T01:49:21.412Z,3.20
2019-05-15T01:50:21.370Z,3.00
2019-05-15T01:51:21.347Z,2.90
2019-05-15T01:52:21.322Z,3.00
2019-05-15T01:53:21.302Z,3.00
2019-05-15T01:54:21.282Z,3.20
2019-05-15T01:55:21.273Z,2.90
2019-05-15T01:56:21.233Z,2.90
2019-05-15T01:57:21.211Z,3.20
2019-05-15T01:58:21.190Z,3.30
2019-05-15T01:59:21.170Z,2.90
2019-05-15T02:00:21.159Z,3.10
2019-05-15T02:01:21.129Z,2.80
2019-05-15T02:02:21.099Z,3.00
2019-05-15T02:03:21.076Z,2.90
2019-05-15T02:04:21.061Z,2.90
2019-05-15T02:05:21.046Z,3.20
2019-05-15T02:06:21.009Z,2.90
2019-05-15T02:07:20.986Z,2.80
2019-05-15T02:08:20.964Z,3.00
2019-05-15T02:09:20.944Z,3.10
2019-05-15T02:10:20.936Z,3.20
2019-05-15T02:11:20.896Z,3.40
2019-05-15T02:12:20.874Z,2.90
2019-05-15T02:13:20.850Z,3.10
2019-05-15T02:14:20.830Z,3.50
2019-05-15T02:15:20.821Z,3.10
2019-05-15T02:16:20.783Z,3.10
2019-05-15T02:17:20.764Z,3.20
2019-05-15T02:18:20.739Z,3.20
2019-05-15T02:19:20.717Z,2.90
2019-05-15T02:20:20.709Z,3.20
2019-05-15T02:21:20.673Z,3.20
2019-05-15T02:22:20.648Z,2.90
2019-05-15T02:23:20.625Z,3.30
2019-05-15T02:24:20.601Z,3.30
2019-05-15T02:25:20.594Z,3.20
2019-05-15T02:26:20.558Z,3.40
2019-05-15T02:27:20.537Z,3.10
2019-05-15T02:28:20.510Z,3.50
2019-05-15T02:29:25.149Z,3.40
2019-05-15T02:30:28.298Z,3.10
2019-05-15T02:31:20.444Z,3.20
2019-05-15T02:32:20.423Z,3.50
2019-05-15T02:33:20.399Z,3.10
2019-05-15T02:34:20.386Z,3.30
2019-05-15T02:35:20.354Z,3.00
2019-05-15T02:36:20.882Z,3.30
2019-05-15T02:37:20.317Z,3.30
2019-05-15T02:38:20.385Z,3.30
2019-05-15T02:39:20.266Z,3.20
2019-05-15T02:40:20.248Z,3.20
2019-05-15T02:41:20.231Z,2.90
2019-05-15T02:42:20.195Z,3.10
2019-05-15T02:43:20.176Z,3.40
2019-05-15T02:44:20.298Z,3.40
2019-05-15T02:45:20.126Z,3.20
2019-05-15T02:46:20.125Z,3.00
2019-05-15T02:47:20.278Z,3.60
2019-05-15T02:48:20.218Z,3.00
2019-05-15T02:49:20.049Z,2.90
2019-05-15T02:50:20.482Z,3.50
2019-05-15T02:51:19.989Z,3.10
2019-05-15T02:52:20.232Z,3.40
2019-05-15T06:33:22.952Z,1.60
2019-05-15T06:34:22.916Z,2.00
2019-05-15T06:35:22.894Z,2.10
2019-05-15T06:36:22.889Z,1.90
2019-05-15T06:37:23.103Z,2.10
2019-05-15T06:38:22.833Z,2.10
2019-05-15T06:39:22.879Z,1.80
2019-05-15T06:40:22.836Z,1.90
2019-05-15T06:41:22.790Z,2.30
2019-05-15T06:42:22.753Z,1.90
2019-05-15T06:43:32.104Z,2.00
2019-05-15T06:44:22.709Z,1.90
2019-05-15T06:45:22.691Z,1.90
2019-05-15T06:46:22.668Z,1.90
2019-05-15T06:47:22.666Z,1.90
2019-05-15T06:48:22.635Z,1.80
2019-05-15T06:49:22.612Z,1.90
2019-05-15T06:50:22.598Z,2.10
2019-05-15T06:51:22.573Z,1.70
2019-05-15T06:52:22.566Z,2.00
2019-05-15T06:53:22.535Z,1.60
2019-05-15T06:54:22.517Z,2.00
2019-05-15T06:55:22.499Z,2.20
2019-05-15T06:56:22.481Z,1.90
2019-05-15T06:57:22.487Z,2.00
2019-05-15T06:58:25.028Z,2.00
2019-05-15T06:59:22.424Z,2.10
2019-05-15T07:00:22.407Z,1.80
2019-05-15T07:01:22.387Z,1.60
2019-05-15T07:02:22.386Z,2.00
2019-05-15T07:03:25.735Z,1.80
2019-05-15T07:04:22.334Z,2.00
2019-05-15T07:05:22.329Z,1.50
2019-05-15T07:06:22.296Z,1.90
2019-05-15T07:07:22.278Z,1.70
2019-05-15T07:08:22.276Z,2.00
2019-05-15T07:09:22.248Z,1.70
2019-05-15T07:10:22.228Z,1.90
2019-05-15T07:11:22.207Z,2.00
2019-05-15T07:12:22.189Z,1.70
2019-05-15T07:13:22.185Z,1.70
2019-05-15T07:14:22.156Z,1.70
2019-05-15T07:15:22.137Z,1.70
2019-05-15T07:16:22.122Z,2.00
2019-05-15T09:42:57.935Z,0.70
2019-05-15T09:43:57.993Z,1.00
2019-05-15T09:44:58.308Z,1.10
2019-05-15T09:45:58.420Z,1.20
2019-05-15T09:46:58.464Z,1.20
2019-05-15T09:47:58.928Z,1.10
2019-05-15T09:48:59.352Z,1.00
2019-05-15T09:49:58.913Z,1.20
2019-05-15T09:50:58.721Z,1.20
2019-05-15T09:52:00.539Z,1.50
2019-05-15T09:52:58.854Z,1.20
2019-05-15T09:53:59.578Z,1.20
2019-05-15T09:54:59.308Z,1.10
2019-05-15T09:55:59.856Z,1.30
2019-05-15T09:56:58.520Z,1.00
2019-05-15T09:57:59.085Z,1.20
2019-05-15T09:58:58.160Z,0.90
2019-05-15T09:59:58.637Z,1.20
2019-05-15T10:00:57.566Z,1.20
2019-05-15T10:01:58.871Z,1.20
2019-05-15T10:02:57.514Z,1.00
2019-05-15T10:03:57.495Z,1.00
2019-05-15T10:05:06.109Z,1.00
2019-05-15T10:05:57.476Z,1.00
2019-05-15T10:06:57.442Z,1.10
2019-05-15T10:07:57.431Z,1.40
2019-05-15T10:08:57.412Z,1.10
2019-05-15T10:09:57.392Z,1.30
2019-05-15T10:10:59.346Z,1.20
2019-05-15T10:11:57.361Z,1.20
2019-05-15T10:12:59.435Z,1.00
2019-05-15T10:54:38.070Z,0.70
2019-05-15T10:55:39.083Z,1.00
2019-05-15T10:56:38.369Z,1.20
2019-05-15T10:57:35.952Z,1.20
2019-05-15T10:58:35.909Z,1.20
2019-05-15T10:59:35.896Z,1.10
2019-05-15T11:00:35.877Z,1.10
2019-05-15T11:01:38.392Z,1.30
2019-05-15T11:02:35.844Z,1.20
2019-05-15T11:03:35.848Z,1.00
2019-05-15T11:04:35.812Z,1.20
2019-05-15T11:05:41.837Z,1.10
2019-05-15T11:06:35.783Z,1.00
2019-05-15T11:07:35.771Z,0.90
2019-05-15T11:08:35.764Z,1.00
2019-05-15T11:09:37.554Z,1.00
2019-05-15T11:10:38.673Z,1.20
2019-05-15T11:11:35.702Z,0.90
2019-05-15T11:12:35.689Z,1.30
2019-05-15T11:13:38.018Z,1.10
2019-05-15T11:14:37.870Z,1.00
2019-05-15T11:15:38.763Z,1.20
2019-05-15T11:16:35.628Z,0.90
2019-05-15T11:17:38.329Z,1.00
2019-05-15T11:18:35.701Z,1.20
2019-05-15T11:19:37.253Z,1.10
2019-05-15T11:20:35.569Z,1.20
2019-05-15T11:21:35.549Z,1.00
2019-05-15T11:22:35.535Z,0.90
2019-05-15T11:23:35.519Z,1.10
2019-05-15T11:24:38.368Z,1.00
2019-05-15T11:25:37.672Z,1.30
2019-05-15T11:26:35.476Z,1.30
2019-05-15T11:27:35.466Z,1.20
2019-05-15T11:28:38.733Z,1.40
2019-05-15T11:29:35.448Z,1.00
2019-05-15T11:30:35.418Z,1.00
2019-05-15T11:31:35.406Z,1.20
2019-05-15T11:32:35.401Z,0.90
2019-05-15T11:33:35.376Z,1.00
2019-05-15T11:34:35.384Z,0.90
2019-05-15T11:35:35.351Z,1.00
2019-05-15T11:36:35.334Z,1.10
2019-05-15T11:37:35.337Z,1.10
2019-05-15T11:38:35.304Z,0.90
2019-05-15T11:39:35.311Z,1.00
2019-05-15T11:40:35.279Z,1.10
2019-05-15T11:41:35.264Z,1.10
2019-05-15T11:42:35.250Z,1.00
2019-05-15T11:43:35.876Z,1.10
2019-05-15T11:44:35.242Z,1.00
2019-05-15T11:45:35.208Z,0.80
2019-05-15T11:46:35.203Z,1.00
2019-05-15T11:47:35.183Z,1.00
2019-05-15T11:48:35.171Z,0.90
2019-05-15T11:49:35.172Z,1.00
2019-05-15T11:50:35.146Z,0.90
2019-05-15T11:51:35.133Z,0.90
2019-05-15T11:52:37.364Z,1.10
2019-05-15T11:53:35.110Z,0.80
2019-05-15T11:54:35.110Z,0.80
2019-05-15T11:55:35.084Z,1.10
2019-05-15T11:56:35.072Z,0.90
2019-05-15T11:57:42.485Z,1.00
2019-05-15T11:58:35.044Z,1.10
2019-05-15T11:59:35.059Z,1.00
2019-05-15T12:00:35.021Z,1.00
2019-05-15T12:01:35.010Z,1.30
2019-05-15T12:02:34.992Z,0.80
2019-05-15T12:03:34.980Z,1.00
2019-05-15T12:04:34.967Z,1.20
2019-05-15T12:05:34.971Z,0.90
2019-05-15T12:06:34.946Z,0.90
2019-05-15T12:07:34.929Z,0.80
2019-05-15T12:08:34.915Z,0.90
2019-05-15T12:09:34.902Z,1.00
2019-05-15T12:10:34.906Z,0.90
2019-05-15T12:11:37.357Z,1.00
2019-05-15T12:12:34.861Z,1.10
2019-05-15T12:13:34.850Z,0.90
2019-05-15T12:14:34.840Z,1.00
2019-05-15T12:15:34.850Z,0.90
2019-05-15T12:16:36.286Z,0.90
2019-05-15T12:17:34.797Z,0.90
2019-05-15T12:18:34.784Z,1.10
2019-05-15T12:19:34.771Z,0.80
2019-05-15T12:20:34.758Z,0.90
2019-05-15T12:21:34.761Z,1.00
2019-05-15T12:22:34.732Z,1.00
2019-05-15T12:23:34.719Z,1.10
2019-05-15T12:24:36.819Z,1.10
2019-05-15T12:25:34.693Z,0.80
2019-05-15T12:26:34.699Z,0.90
2019-05-15T12:27:34.669Z,1.00
2019-05-15T12:28:34.655Z,1.00
2019-05-15T12:29:34.646Z,0.90
2019-05-15T12:30:34.630Z,1.10
2019-05-15T12:31:34.639Z,1.10
2019-05-15T12:32:36.734Z,1.00
2019-05-15T12:33:34.594Z,1.00
2019-05-15T12:34:34.580Z,1.10
2019-05-15T12:35:34.569Z,1.10
2019-05-15T12:36:51.347Z,1.10
2019-05-15T12:37:34.558Z,0.90
2019-05-15T12:38:34.531Z,1.10
2019-05-15T12:39:34.518Z,1.20
2019-05-15T13:00:34.273Z,0.80
2019-05-15T13:01:34.262Z,0.80
2019-05-15T13:02:34.267Z,0.80
2019-05-15T13:03:34.235Z,1.00
2019-05-15T13:04:34.225Z,0.70
2019-05-15T13:05:34.214Z,0.70
2019-05-15T13:06:47.364Z,1.00
2019-05-15T13:07:34.194Z,1.00
2019-05-15T13:08:34.198Z,0.90
2019-05-15T13:09:34.172Z,0.90
2019-05-15T13:10:34.166Z,0.90
2019-05-15T13:11:34.149Z,0.90
2019-05-15T13:12:34.139Z,0.80
2019-05-15T13:13:34.144Z,0.80
2019-05-15T13:14:34.122Z,1.10
2019-05-15T13:15:34.119Z,1.00
2019-05-15T13:16:34.104Z,0.80
2019-05-15T13:17:34.090Z,1.00
2019-05-15T13:18:34.097Z,1.10
2019-05-15T13:19:34.071Z,0.90
2019-05-15T13:20:34.062Z,0.90
2019-05-15T13:21:34.076Z,0.90
2019-05-15T13:22:36.316Z,0.80
2019-05-15T13:23:34.047Z,0.80
2019-05-15T13:24:34.023Z,1.00
2019-05-15T13:25:34.010Z,1.00
2019-05-15T13:26:34.003Z,0.70
2019-05-15T13:27:33.991Z,0.90
2019-05-15T13:28:33.982Z,0.90
2019-05-15T13:29:33.990Z,0.70
2019-05-15T13:30:33.968Z,0.90
2019-05-15T13:31:33.953Z,0.90
2019-05-15T13:32:33.946Z,0.80
2019-05-15T13:33:33.938Z,0.90
2019-05-15T13:34:33.943Z,0.80
2019-05-15T13:35:33.924Z,0.80
2019-05-15T13:36:33.912Z,0.80
2019-05-15T13:37:33.903Z,1.10
2019-05-15T13:38:33.894Z,0.90
2019-05-15T13:39:33.903Z,0.90
2019-05-15T13:40:37.911Z,0.90
2019-05-15T13:41:33.870Z,0.90
2019-05-15T13:42:33.861Z,1.00
2019-05-15T13:43:33.854Z,0.80
2019-05-15T13:44:33.861Z,0.90
2019-05-15T13:45:33.839Z,1.00
2019-05-15T13:46:33.831Z,1.00
2019-05-15T13:47:33.823Z,0.70
2019-05-15T13:48:33.815Z,0.80
2019-05-15T13:49:33.831Z,0.90
2019-05-15T13:50:33.844Z,0.90
2019-05-15T13:51:33.793Z,0.80
2019-05-15T13:52:33.789Z,0.90
2019-05-15T13:53:33.782Z,1.00
2019-05-15T13:54:33.775Z,1.00
2019-05-15T13:55:37.195Z,1.10
2019-05-15T13:56:33.761Z,0.80
2019-05-15T13:57:33.758Z,0.80
2019-05-15T13:58:33.748Z,0.80
2019-05-15T13:59:33.740Z,0.90
2019-05-15T14:00:33.752Z,0.90
2019-05-15T14:01:33.729Z,1.00
2019-05-15T14:02:33.721Z,0.90
2019-05-15T14:03:33.722Z,1.00
2019-05-15T14:04:33.708Z,1.00
2019-05-15T14:05:33.718Z,0.90
2019-05-15T14:06:33.695Z,0.80
2019-05-15T14:07:48.334Z,0.90
2019-05-15T14:08:33.683Z,0.90
2019-05-15T14:09:34.612Z,0.80
2019-05-15T14:10:33.688Z,0.90
2019-05-15T14:11:33.664Z,1.10
2019-05-15T14:12:33.661Z,1.10
2019-05-15T14:13:33.655Z,1.00
2019-05-15T14:14:33.646Z,0.80
2019-05-15T14:15:33.660Z,0.80
2019-05-15T14:16:33.645Z,0.80
2019-05-15T14:17:33.627Z,0.90
2019-05-15T14:18:33.622Z,0.80
2019-05-15T14:19:33.619Z,1.00
2019-05-15T14:20:33.628Z,0.90
2019-05-15T14:21:33.604Z,0.90
2019-05-15T14:22:33.600Z,1.10
2019-05-15T14:23:33.595Z,0.80
2019-05-15T14:24:33.590Z,0.90
2019-05-15T14:25:33.597Z,1.00
2019-05-15T14:26:33.577Z,0.90
2019-05-15T14:27:33.572Z,0.80
2019-05-15T14:28:33.565Z,1.00
2019-05-15T14:29:33.559Z,1.00
2019-05-15T14:30:33.570Z,0.90
2019-05-15T14:31:36.404Z,1.00
2019-05-15T14:32:38.587Z,0.80
2019-05-15T14:33:33.542Z,0.90
2019-05-15T14:34:33.537Z,0.90
2019-05-15T14:35:33.564Z,0.90
2019-05-15T14:36:33.524Z,0.90
2019-05-15T14:37:33.519Z,1.00
2019-05-15T14:38:33.513Z,1.10
2019-05-15T14:39:33.530Z,0.90
2019-05-15T14:40:33.505Z,0.90
2019-05-15T14:41:33.511Z,0.80
2019-05-15T14:42:33.496Z,0.80
2019-05-15T14:43:33.489Z,0.90
2019-05-15T14:44:33.498Z,0.80
2019-05-15T14:45:33.479Z,0.90
2019-05-15T14:46:33.552Z,1.60
2019-05-15T14:47:33.471Z,1.20
2019-05-15T14:48:33.465Z,1.00
2019-05-15T14:49:35.440Z,1.00
2019-05-15T14:50:33.453Z,0.90
2019-05-15T14:51:33.463Z,0.90
2019-05-15T14:52:33.442Z,1.00
2019-05-15T14:53:33.437Z,1.00
2019-05-15T14:54:33.443Z,1.20
2019-05-15T14:55:34.700Z,1.00
2019-05-15T14:56:33.437Z,0.80
2019-05-15T14:57:33.415Z,0.90
2019-05-15T14:58:33.413Z,0.90
2019-05-15T14:59:33.409Z,1.30
2019-05-15T15:00:35.060Z,0.90
2019-05-15T15:01:33.427Z,0.80
2019-05-15T15:02:33.396Z,0.80
2019-05-15T15:03:33.398Z,0.90
2019-05-15T15:04:33.389Z,1.10
2019-05-15T15:05:33.383Z,1.00
2019-05-15T15:06:33.380Z,1.10
2019-05-15T15:07:33.391Z,1.20
2019-05-15T15:08:33.371Z,0.90
2019-05-15T15:09:33.364Z,0.90
2019-05-15T15:10:33.365Z,0.80
2019-05-15T15:11:33.358Z,0.80
2019-05-15T15:12:33.371Z,0.80
2019-05-15T15:13:33.347Z,0.90
2019-05-15T15:14:33.344Z,0.90
2019-05-15T15:15:33.342Z,0.80
2019-05-15T15:16:33.334Z,1.10
2019-05-15T15:17:33.367Z,1.10
2019-05-15T15:18:33.325Z,0.90
2019-05-15T15:19:33.321Z,1.00
2019-05-15T15:20:33.317Z,0.70
2019-05-15T15:21:33.313Z,1.00
2019-05-15T15:22:33.303Z,1.30
2019-05-15T15:23:33.321Z,1.00
2019-05-15T15:24:33.296Z,0.90
2019-05-15T15:25:33.287Z,0.80
2019-05-15T15:26:33.298Z,0.90
2019-05-15T15:27:33.279Z,0.80
2019-05-15T15:28:33.292Z,0.80
2019-05-15T15:29:33.270Z,0.90
2019-05-15T15:30:33.267Z,0.90
2019-05-15T15:31:33.265Z,0.90
2019-05-15T15:32:33.277Z,1.00
2019-05-15T15:33:33.273Z,0.80
2019-05-15T15:34:33.258Z,0.90
2019-05-15T15:35:33.250Z,0.90
2019-05-15T15:36:33.247Z,1.00
2019-05-15T15:37:33.239Z,0.80
2019-05-15T15:38:40.785Z,0.80
2019-05-15T15:39:33.236Z,0.80
2019-05-15T15:40:33.231Z,0.90
2019-05-15T15:41:33.225Z,0.70
2019-05-15T15:42:33.221Z,0.80
2019-05-15T15:43:33.231Z,1.00
2019-05-15T15:44:33.210Z,1.40
2019-05-15T15:45:33.207Z,1.00
2019-05-15T15:46:33.204Z,0.90
2019-05-15T15:47:33.202Z,1.00
2019-05-15T15:48:33.212Z,0.90
2019-05-15T15:49:33.192Z,1.60
2019-05-15T15:50:33.190Z,1.60
2019-05-15T15:51:33.183Z,1.60
2019-05-15T15:52:33.181Z,1.30
2019-05-15T15:53:33.198Z,1.60
2019-05-15T15:54:33.174Z,0.90
2019-05-15T15:55:33.171Z,0.80
2019-05-15T15:56:33.166Z,1.00
2019-05-15T15:57:33.160Z,1.00
2019-05-15T15:58:33.155Z,0.90
2019-05-15T15:59:33.185Z,1.10
2019-05-15T16:00:33.149Z,1.20
2019-05-15T16:01:33.145Z,1.10
2019-05-15T16:02:33.142Z,1.00
2019-05-15T16:03:33.145Z,0.90
2019-05-15T16:04:33.150Z,0.80
2019-05-15T16:05:33.133Z,0.90
2019-05-15T16:06:33.143Z,0.70
2019-05-15T16:07:33.124Z,0.80
2019-05-15T16:08:33.123Z,1.00
2019-05-15T16:09:33.134Z,0.80
2019-05-15T16:10:33.115Z,0.80
2019-05-15T16:11:33.112Z,1.00
2019-05-15T16:12:33.109Z,0.90
2019-05-15T16:13:33.107Z,1.00
2019-05-15T16:14:33.124Z,0.80
2019-05-15T16:15:33.101Z,1.00
2019-05-15T16:16:33.097Z,0.60
2019-05-15T16:17:33.096Z,0.90
2019-05-15T16:18:33.098Z,0.80
2019-05-15T16:19:33.089Z,0.80
2019-05-15T16:20:33.103Z,1.10
2019-05-15T16:21:33.084Z,0.80
2019-05-15T16:22:33.079Z,0.90
2019-05-15T16:23:33.080Z,0.70
2019-05-15T16:24:33.076Z,0.90
2019-05-15T16:25:33.109Z,0.90
2019-05-15T16:26:33.075Z,0.80
2019-05-15T16:27:33.067Z,0.80
2019-05-15T16:28:33.068Z,1.00
2019-05-15T16:29:33.060Z,1.20
2019-05-15T16:30:40.767Z,0.80
2019-05-15T16:31:33.069Z,0.70
2019-05-15T16:32:33.052Z,1.10
2019-05-15T16:33:33.047Z,0.60
2019-05-15T16:34:33.045Z,0.80
2019-05-15T16:35:33.043Z,0.90
2019-05-15T16:36:33.054Z,1.20
2019-05-15T16:37:33.036Z,0.90
2019-05-15T16:38:33.035Z,0.80
2019-05-15T16:39:33.033Z,0.90
2019-05-15T16:40:33.030Z,1.00
2019-05-15T16:41:33.046Z,0.90
2019-05-15T16:42:33.022Z,0.70
2019-05-15T16:43:33.025Z,0.80
2019-05-15T16:44:33.020Z,0.80
2019-05-15T16:45:33.016Z,0.70
2019-05-15T16:46:33.037Z,0.80
2019-05-15T16:47:33.007Z,1.00
2019-05-15T16:48:33.004Z,1.00
2019-05-15T16:49:33.003Z,0.80
2019-05-15T16:50:33.002Z,0.90
2019-05-15T16:51:33.012Z,1.10
2019-05-15T16:52:32.994Z,0.70
2019-05-15T16:53:32.993Z,0.70
2019-05-15T16:54:32.986Z,1.00
2019-05-15T16:55:33.005Z,0.80
2019-05-15T16:56:36.312Z,1.00
2019-05-15T16:57:32.979Z,0.80
2019-05-15T16:58:32.981Z,0.60
2019-05-15T16:59:35.929Z,0.80
2019-05-15T17:00:32.969Z,0.60
2019-05-15T17:01:32.980Z,0.80
2019-05-15T17:02:32.963Z,0.70
2019-05-15T17:03:32.962Z,0.80
2019-05-15T17:04:42.304Z,0.70
2019-05-15T17:05:32.951Z,1.00
2019-05-15T17:06:32.962Z,0.80
2019-05-15T17:07:32.944Z,0.70
2019-05-15T17:08:32.942Z,0.80
2019-05-15T17:09:32.955Z,0.80
2019-05-15T17:10:32.933Z,0.60
2019-05-15T17:11:32.954Z,0.80
2019-05-15T17:12:32.930Z,0.90
2019-05-15T17:13:32.924Z,0.90
2019-05-15T17:14:32.919Z,0.80
2019-05-15T17:15:32.921Z,0.80
2019-05-15T17:16:32.916Z,0.80
2019-05-15T17:17:32.929Z,0.90
2019-05-15T17:18:32.909Z,0.80
2019-05-15T17:19:32.907Z,0.90
2019-05-15T17:20:32.903Z,0.80
2019-05-15T17:21:32.900Z,0.80
2019-05-15T17:22:32.925Z,0.90
2019-05-15T17:23:32.895Z,0.80
2019-05-15T17:24:32.893Z,0.70
2019-05-15T17:25:32.891Z,1.20
2019-05-15T17:26:32.886Z,1.00
2019-05-15T17:27:32.884Z,0.90
2019-05-15T17:28:32.892Z,0.80
2019-05-15T17:29:32.878Z,0.90
2019-05-15T17:30:32.869Z,0.90
2019-05-15T17:31:32.864Z,0.60
2019-05-15T17:32:32.861Z,0.80
2019-05-15T17:33:32.880Z,0.80
2019-05-15T17:34:32.853Z,1.00
2019-05-15T17:35:32.850Z,1.10
2019-05-15T17:36:32.843Z,1.20
2019-05-15T17:37:32.834Z,1.10
2019-05-15T17:38:32.846Z,1.00
2019-05-15T17:39:38.121Z,1.40
2019-05-15T17:40:32.821Z,1.20
2019-05-15T17:41:32.813Z,1.90
2019-05-15T17:42:32.803Z,1.10
2019-05-15T17:43:32.812Z,3.00
2019-05-15T17:44:32.789Z,1.60
2019-05-15T17:45:32.794Z,1.40
2019-05-15T17:46:32.771Z,1.00
2019-05-15T17:47:32.763Z,1.20
2019-05-15T17:48:32.769Z,1.00
2019-05-15T17:49:32.746Z,1.10
2019-05-15T17:50:44.904Z,1.00
2019-05-15T17:51:32.728Z,1.00
2019-05-15T17:52:32.722Z,0.90
2019-05-15T17:53:32.725Z,0.90
2019-05-15T17:54:32.702Z,1.20
2019-05-15T17:55:32.689Z,1.00
2019-05-15T17:56:32.686Z,2.00
2019-05-15T17:57:32.669Z,1.40
2019-05-15T17:58:32.674Z,1.30
2019-05-15T17:59:32.652Z,1.10
2019-05-15T18:00:32.652Z,1.00
2019-05-15T18:01:32.627Z,0.90
2019-05-15T18:02:32.617Z,0.80
2019-05-15T18:03:32.624Z,0.90
2019-05-15T18:04:32.595Z,0.80
2019-05-15T18:05:32.582Z,1.00
2019-05-15T18:06:32.570Z,0.90
2019-05-15T18:07:32.562Z,0.80
2019-05-15T18:08:32.563Z,0.90
2019-05-15T18:09:32.537Z,0.90
2019-05-15T18:10:32.526Z,1.20
2019-05-15T18:11:32.538Z,1.00
2019-05-15T18:12:32.504Z,1.00
2019-05-15T18:13:32.501Z,1.10
2019-05-15T18:14:32.473Z,1.20
2019-05-15T18:15:32.483Z,0.90
2019-05-15T18:16:32.448Z,1.00
2019-05-15T18:17:32.437Z,0.80
2019-05-15T18:18:32.434Z,1.00
2019-05-15T18:19:32.445Z,1.30
2019-05-15T18:20:32.422Z,1.60
2019-05-15T18:21:32.380Z,1.30
2019-05-15T18:22:32.370Z,1.10
2019-05-15T18:23:32.370Z,1.00
2019-05-15T18:24:32.340Z,1.00
2019-05-15T18:25:32.326Z,0.80
2019-05-15T18:26:32.313Z,0.90
2019-05-15T18:27:32.298Z,0.70
2019-05-15T18:28:32.285Z,1.10
2019-05-15T18:29:32.283Z,1.10
2019-05-15T18:30:32.257Z,0.80
2019-05-15T18:31:32.244Z,1.10
2019-05-15T18:32:32.237Z,0.90
2019-05-15T18:33:32.213Z,1.20
2019-05-15T18:34:32.235Z,1.30
2019-05-15T18:35:32.942Z,1.10
2019-05-15T18:36:32.179Z,1.00
2019-05-15T18:37:32.159Z,0.90
2019-05-15T18:38:32.146Z,0.90
2019-05-15T18:39:32.144Z,1.10
2019-05-15T18:40:32.115Z,0.90
2019-05-15T18:41:32.101Z,0.90
2019-05-15T18:42:32.086Z,1.10
2019-05-15T18:43:32.071Z,1.00
2019-05-15T18:44:32.073Z,0.90
2019-05-15T18:45:32.043Z,2.20
2019-05-15T18:46:32.027Z,7.60
2019-05-15T18:47:32.012Z,2.10
2019-05-15T18:48:32.003Z,1.50
2019-05-15T18:49:32.018Z,1.50
2019-05-15T18:50:31.969Z,1.00
2019-05-15T18:51:31.953Z,1.00
2019-05-15T18:52:31.944Z,1.20
2019-05-15T18:53:31.922Z,1.10
2019-05-15T18:54:31.910Z,1.10
2019-05-15T18:55:31.908Z,0.80
2019-05-15T18:56:31.879Z,1.70
2019-05-15T18:57:31.879Z,0.90
2019-05-15T18:58:31.852Z,1.90
2019-05-15T18:59:31.831Z,0.90
2019-05-15T19:00:31.836Z,1.00
2019-05-15T19:01:31.798Z,1.00
2019-05-15T19:02:31.785Z,1.20
2019-05-15T19:03:31.769Z,1.00
2019-05-15T19:04:31.755Z,1.00
2019-05-15T19:05:31.750Z,0.90
2019-05-15T19:06:31.722Z,1.10
2019-05-15T19:07:31.709Z,0.90
2019-05-15T19:08:31.692Z,1.10
2019-05-15T19:09:31.677Z,1.10
2019-05-15T19:10:31.678Z,0.90
2019-05-15T19:11:31.646Z,1.30
2019-05-15T19:12:31.630Z,1.20
2019-05-15T19:13:31.612Z,1.10
2019-05-15T19:14:31.597Z,1.30
2019-05-15T19:15:31.594Z,1.00
2019-05-15T19:16:31.888Z,1.00
2019-05-15T19:17:31.548Z,0.90
2019-05-15T19:18:31.532Z,1.10
2019-05-15T19:19:31.518Z,1.20
2019-05-15T19:20:31.860Z,0.90
2019-05-15T19:21:31.502Z,1.00
2019-05-15T19:22:31.467Z,1.10
2019-05-15T19:23:31.452Z,1.10
2019-05-15T19:24:31.439Z,1.20
2019-05-15T19:25:31.421Z,1.10
2019-05-15T19:26:31.426Z,1.10
2019-05-15T19:27:31.387Z,1.40
2019-05-15T19:28:31.372Z,1.40
2019-05-15T19:29:31.354Z,1.00
2019-05-15T19:30:31.339Z,1.10
2019-05-15T19:31:31.337Z,1.10
2019-05-15T19:32:31.313Z,1.10
2019-05-15T19:33:36.920Z,1.20
2019-05-15T19:34:31.274Z,1.00
2019-05-15T19:35:31.258Z,1.00
2019-05-15T19:36:31.257Z,1.10
2019-05-15T19:37:33.749Z,1.20
2019-05-15T19:38:31.205Z,1.20
2019-05-15T19:39:31.190Z,1.40
2019-05-15T19:40:31.191Z,1.10
2019-05-15T19:41:31.172Z,1.20
2019-05-15T19:42:31.151Z,1.10
2019-05-15T19:43:31.122Z,1.30
2019-05-15T19:44:31.105Z,1.30
2019-05-15T19:45:31.089Z,1.20
2019-05-15T19:46:31.086Z,1.10
2019-05-15T19:47:31.055Z,1.20
2019-05-15T19:48:31.040Z,1.30
2019-05-15T19:49:31.021Z,1.00
2019-05-15T19:50:31.008Z,1.10
2019-05-15T19:51:30.995Z,1.00
2019-05-15T19:52:30.987Z,1.30
2019-05-15T19:53:30.955Z,1.00
2019-05-15T19:54:30.936Z,1.00
2019-05-15T19:55:30.920Z,1.10
2019-05-15T19:56:30.917Z,1.10
2019-05-15T19:57:30.886Z,1.10
2019-05-15T19:58:30.869Z,1.10
2019-05-15T19:59:30.853Z,1.20
2019-05-15T20:00:30.837Z,1.10
2019-05-15T20:01:30.838Z,1.20
2019-05-15T20:02:30.798Z,1.10
2019-05-15T20:03:30.784Z,1.40
2019-05-15T20:04:30.766Z,1.10
2019-05-15T20:05:30.749Z,1.20
2019-05-15T20:06:30.731Z,1.10
2019-05-15T20:07:30.763Z,1.00
2019-05-15T20:08:30.698Z,1.10
2019-05-15T20:09:30.681Z,1.20
2019-05-15T20:10:30.665Z,1.00
2019-05-15T20:11:30.647Z,1.30
2019-05-15T20:12:30.649Z,1.40
2019-05-15T20:13:30.634Z,1.30
2019-05-15T20:14:30.596Z,1.10
2019-05-15T20:15:30.576Z,1.20
2019-05-15T20:16:30.560Z,1.10
2019-05-15T20:17:30.557Z,1.30
2019-05-15T20:18:30.524Z,1.50
2019-05-15T20:19:30.508Z,1.60
2019-05-15T20:20:30.492Z,1.50
2019-05-15T20:21:30.472Z,1.50
2019-05-15T20:22:30.472Z,1.30
2019-05-15T20:23:30.439Z,1.50
2019-05-15T20:24:30.420Z,1.30